sensor_id;sensor_type;location;lat;lon;timestamp;temperature;humidity
22838;DHT22;11585;51.450;-0.240;2023-12-20T00:01:05;8.80;99.90
22838;DHT22;11585;51.450;-0.240;2023-12-20T00:03:30;8.80;99.90
22838;DHT22;11585;51.450;-0.240;2023-12-20T00:05:56;8.70;99.90
22838;DHT22;11585;51.450;-0.240;2023-12-20T00:08:22;8.70;99.90
22838;DHT22;11585;51.450;-0.240;2023-12-20T00:11:08;8.70;99.90
22838;DHT22;11585;51.450;-0.240;2023-12-20T00:13:34;8.70;99.90
22838;DHT22;11585;51.450;-0.240;2023-12-20T00:16:00;8.70;99.90
22838;DHT22;11585;51.450;-0.240;2023-12-20T00:18:25;8.70;99.90
22838;DHT22;11585;51.450;-0.240;2023-12-20T00:20:52;8.40;99.90
22838;DHT22;11585;51.450;-0.240;2023-12-20T00:23:18;8.70;99.90
22838;DHT22;11585;51.450;-0.240;2023-12-20T00:25:44;8.70;99.90
22838;DHT22;11585;51.450;-0.240;2023-12-20T00:28:09;8.70;99.90
22838;DHT22;11585;51.450;-0.240;2023-12-20T00:30:56;8.70;99.90
22838;DHT22;11585;51.450;-0.240;2023-12-20T00:33:22;8.70;99.90
22838;DHT22;11585;51.450;-0.240;2023-12-20T00:35:48;8.70;99.90
22838;DHT22;11585;51.450;-0.240;2023-12-20T00:38:14;8.60;99.90
22838;DHT22;11585;51.450;-0.240;2023-12-20T00:40:43;8.70;99.90
22838;DHT22;11585;51.450;-0.240;2023-12-20T00:43:09;8.60;99.90
22838;DHT22;11585;51.450;-0.240;2023-12-20T00:45:34;8.10;99.90
22838;DHT22;11585;51.450;-0.240;2023-12-20T00:48:00;8.60;99.90
22838;DHT22;11585;51.450;-0.240;2023-12-20T00:50:26;8.60;99.90
22838;DHT22;11585;51.450;-0.240;2023-12-20T00:52:51;8.50;99.90
22838;DHT22;11585;51.450;-0.240;2023-12-20T00:55:17;8.60;99.90
22838;DHT22;11585;51.450;-0.240;2023-12-20T00:57:43;8.50;99.90
22838;DHT22;11585;51.450;-0.240;2023-12-20T01:00:29;8.50;99.90
22838;DHT22;11585;51.450;-0.240;2023-12-20T01:02:54;8.50;99.90
22838;DHT22;11585;51.450;-0.240;2023-12-20T01:05:20;8.50;99.90
22838;DHT22;11585;51.450;-0.240;2023-12-20T01:07:48;8.40;99.90
22838;DHT22;11585;51.450;-0.240;2023-12-20T01:10:15;8.50;99.90
22838;DHT22;11585;51.450;-0.240;2023-12-20T01:12:40;8.50;99.90
22838;DHT22;11585;51.450;-0.240;2023-12-20T01:15:06;8.50;99.90
22838;DHT22;11585;51.450;-0.240;2023-12-20T01:17:32;8.50;99.90
22838;DHT22;11585;51.450;-0.240;2023-12-20T01:20:00;8.40;99.90
22838;DHT22;11585;51.450;-0.240;2023-12-20T01:22:26;8.40;99.90
22838;DHT22;11585;51.450;-0.240;2023-12-20T01:24:51;8.50;99.90
22838;DHT22;11585;51.450;-0.240;2023-12-20T01:27:17;8.80;99.90
22838;DHT22;11585;51.450;-0.240;2023-12-20T01:29:43;8.40;99.90
22838;DHT22;11585;51.450;-0.240;2023-12-20T01:32:09;8.40;99.90
22838;DHT22;11585;51.450;-0.240;2023-12-20T01:34:34;8.40;99.90
22838;DHT22;11585;51.450;-0.240;2023-12-20T01:37:01;8.40;99.90
22838;DHT22;11585;51.450;-0.240;2023-12-20T01:39:28;8.40;99.90
22838;DHT22;11585;51.450;-0.240;2023-12-20T01:41:53;8.40;99.90
22838;DHT22;11585;51.450;-0.240;2023-12-20T01:44:19;8.40;99.90
22838;DHT22;11585;51.450;-0.240;2023-12-20T01:46:45;8.40;99.90
22838;DHT22;11585;51.450;-0.240;2023-12-20T01:49:14;8.40;99.90
22838;DHT22;11585;51.450;-0.240;2023-12-20T01:51:40;8.40;99.90
22838;DHT22;11585;51.450;-0.240;2023-12-20T01:54:06;8.40;99.90
22838;DHT22;11585;51.450;-0.240;2023-12-20T01:56:32;8.40;99.90
22838;DHT22;11585;51.450;-0.240;2023-12-20T01:59:00;8.40;99.90
22838;DHT22;11585;51.450;-0.240;2023-12-20T02:01:26;8.40;99.90
22838;DHT22;11585;51.450;-0.240;2023-12-20T02:03:54;8.40;99.90
22838;DHT22;11585;51.450;-0.240;2023-12-20T02:06:21;8.40;99.90
22838;DHT22;11585;51.450;-0.240;2023-12-20T02:08:50;8.30;99.90
22838;DHT22;11585;51.450;-0.240;2023-12-20T02:11:16;8.40;99.90
22838;DHT22;11585;51.450;-0.240;2023-12-20T02:13:43;8.30;99.90
22838;DHT22;11585;51.450;-0.240;2023-12-20T02:16:09;8.40;99.90
22838;DHT22;11585;51.450;-0.240;2023-12-20T02:18:35;8.40;99.90
22838;DHT22;11585;51.450;-0.240;2023-12-20T02:24:04;8.30;99.90
22838;DHT22;11585;51.450;-0.240;2023-12-20T02:26:32;8.40;99.90
22838;DHT22;11585;51.450;-0.240;2023-12-20T02:32:21;8.30;99.90
22838;DHT22;11585;51.450;-0.240;2023-12-20T02:34:48;8.30;99.90
22838;DHT22;11585;51.450;-0.240;2023-12-20T02:37:14;8.30;99.90
22838;DHT22;11585;51.450;-0.240;2023-12-20T02:39:41;8.30;99.90
22838;DHT22;11585;51.450;-0.240;2023-12-20T02:42:07;8.30;99.90
22838;DHT22;11585;51.450;-0.240;2023-12-20T02:44:33;8.30;99.90
22838;DHT22;11585;51.450;-0.240;2023-12-20T02:46:58;8.30;99.90
22838;DHT22;11585;51.450;-0.240;2023-12-20T02:52:29;8.30;99.90
22838;DHT22;11585;51.450;-0.240;2023-12-20T02:54:54;8.20;99.90
22838;DHT22;11585;51.450;-0.240;2023-12-20T02:57:20;8.30;99.90
22838;DHT22;11585;51.450;-0.240;2023-12-20T02:59:46;8.30;99.90
22838;DHT22;11585;51.450;-0.240;2023-12-20T03:02:11;8.30;99.90
22838;DHT22;11585;51.450;-0.240;2023-12-20T03:04:37;8.30;99.90
22838;DHT22;11585;51.450;-0.240;2023-12-20T03:07:03;8.30;99.90
22838;DHT22;11585;51.450;-0.240;2023-12-20T03:12:33;8.20;99.90
22838;DHT22;11585;51.450;-0.240;2023-12-20T03:14:59;8.20;99.90
22838;DHT22;11585;51.450;-0.240;2023-12-20T03:17:25;8.20;99.90
22838;DHT22;11585;51.450;-0.240;2023-12-20T03:23:02;8.20;99.90
22838;DHT22;11585;51.450;-0.240;2023-12-20T03:25:28;8.20;99.90
22838;DHT22;11585;51.450;-0.240;2023-12-20T03:27:54;8.20;99.90
22838;DHT22;11585;51.450;-0.240;2023-12-20T03:33:28;8.20;99.90
22838;DHT22;11585;51.450;-0.240;2023-12-20T03:35:54;8.20;99.90
22838;DHT22;11585;51.450;-0.240;2023-12-20T03:38:20;8.20;99.90
22838;DHT22;11585;51.450;-0.240;2023-12-20T03:40:47;8.20;99.90
22838;DHT22;11585;51.450;-0.240;2023-12-20T03:43:13;8.10;99.90
22838;DHT22;11585;51.450;-0.240;2023-12-20T03:45:42;8.10;99.90
22838;DHT22;11585;51.450;-0.240;2023-12-20T03:48:08;8.20;99.90
22838;DHT22;11585;51.450;-0.240;2023-12-20T03:50:35;8.10;99.90
22838;DHT22;11585;51.450;-0.240;2023-12-20T03:53:01;8.20;99.90
22838;DHT22;11585;51.450;-0.240;2023-12-20T03:55:26;8.10;99.90
22838;DHT22;11585;51.450;-0.240;2023-12-20T03:57:52;8.20;99.90
22838;DHT22;11585;51.450;-0.240;2023-12-20T04:00:38;8.10;99.90
22838;DHT22;11585;51.450;-0.240;2023-12-20T04:03:04;8.10;99.90
22838;DHT22;11585;51.450;-0.240;2023-12-20T04:05:29;8.10;99.90
22838;DHT22;11585;51.450;-0.240;2023-12-20T04:07:55;8.20;99.90
22838;DHT22;11585;51.450;-0.240;2023-12-20T04:13:43;8.20;99.90
22838;DHT22;11585;51.450;-0.240;2023-12-20T04:16:09;8.00;99.90
22838;DHT22;11585;51.450;-0.240;2023-12-20T04:18:34;8.10;99.90
22838;DHT22;11585;51.450;-0.240;2023-12-20T04:21:01;8.10;99.90
22838;DHT22;11585;51.450;-0.240;2023-12-20T04:23:27;8.20;99.90
22838;DHT22;11585;51.450;-0.240;2023-12-20T04:25:54;8.20;99.90
22838;DHT22;11585;51.450;-0.240;2023-12-20T04:28:20;8.20;99.90
22838;DHT22;11585;51.450;-0.240;2023-12-20T04:31:06;8.10;99.90
22838;DHT22;11585;51.450;-0.240;2023-12-20T04:33:32;8.20;99.90
22838;DHT22;11585;51.450;-0.240;2023-12-20T04:35:58;8.20;99.90
22838;DHT22;11585;51.450;-0.240;2023-12-20T04:38:25;8.20;99.90
22838;DHT22;11585;51.450;-0.240;2023-12-20T04:40:51;8.20;99.90
22838;DHT22;11585;51.450;-0.240;2023-12-20T04:43:17;8.10;99.90
22838;DHT22;11585;51.450;-0.240;2023-12-20T04:45:43;8.20;99.90
22838;DHT22;11585;51.450;-0.240;2023-12-20T04:48:08;8.20;99.90
22838;DHT22;11585;51.450;-0.240;2023-12-20T04:50:54;8.10;99.90
22838;DHT22;11585;51.450;-0.240;2023-12-20T04:53:20;8.20;99.90
22838;DHT22;11585;51.450;-0.240;2023-12-20T04:55:45;8.10;99.90
22838;DHT22;11585;51.450;-0.240;2023-12-20T04:58:11;8.20;99.90
22838;DHT22;11585;51.450;-0.240;2023-12-20T05:03:42;8.10;99.90
22838;DHT22;11585;51.450;-0.240;2023-12-20T05:06:09;8.10;99.90
22838;DHT22;11585;51.450;-0.240;2023-12-20T05:08:35;8.10;99.90
22838;DHT22;11585;51.450;-0.240;2023-12-20T05:11:21;8.10;99.90
22838;DHT22;11585;51.450;-0.240;2023-12-20T05:13:47;8.10;99.90
22838;DHT22;11585;51.450;-0.240;2023-12-20T05:16:13;8.10;99.90
22838;DHT22;11585;51.450;-0.240;2023-12-20T05:18:40;8.10;99.90
22838;DHT22;11585;51.450;-0.240;2023-12-20T05:21:09;8.10;99.90
22838;DHT22;11585;51.450;-0.240;2023-12-20T05:23:34;8.10;99.90
22838;DHT22;11585;51.450;-0.240;2023-12-20T05:26:00;8.10;99.90
22838;DHT22;11585;51.450;-0.240;2023-12-20T05:28:26;8.10;99.90
22838;DHT22;11585;51.450;-0.240;2023-12-20T05:34:00;8.00;99.90
22838;DHT22;11585;51.450;-0.240;2023-12-20T05:36:26;8.10;99.90
22838;DHT22;11585;51.450;-0.240;2023-12-20T05:38:52;8.10;99.90
22838;DHT22;11585;51.450;-0.240;2023-12-20T05:41:18;8.10;99.90
22838;DHT22;11585;51.450;-0.240;2023-12-20T05:43:44;8.10;99.90
22838;DHT22;11585;51.450;-0.240;2023-12-20T05:46:10;8.10;99.90
22838;DHT22;11585;51.450;-0.240;2023-12-20T05:48:37;8.10;99.90
22838;DHT22;11585;51.450;-0.240;2023-12-20T05:51:04;8.10;99.90
22838;DHT22;11585;51.450;-0.240;2023-12-20T05:53:30;8.10;99.90
22838;DHT22;11585;51.450;-0.240;2023-12-20T05:55:56;8.10;99.90
22838;DHT22;11585;51.450;-0.240;2023-12-20T05:58:21;8.10;99.90
22838;DHT22;11585;51.450;-0.240;2023-12-20T06:01:06;8.10;99.90
22838;DHT22;11585;51.450;-0.240;2023-12-20T06:03:34;8.10;99.90
22838;DHT22;11585;51.450;-0.240;2023-12-20T06:06:04;8.10;99.90
22838;DHT22;11585;51.450;-0.240;2023-12-20T06:08:29;8.10;99.90
22838;DHT22;11585;51.450;-0.240;2023-12-20T06:10:57;8.10;99.90
22838;DHT22;11585;51.450;-0.240;2023-12-20T06:13:23;8.10;99.90
22838;DHT22;11585;51.450;-0.240;2023-12-20T06:15:48;8.10;99.90
22838;DHT22;11585;51.450;-0.240;2023-12-20T06:18:14;8.00;99.90
22838;DHT22;11585;51.450;-0.240;2023-12-20T06:20:41;8.00;99.90
22838;DHT22;11585;51.450;-0.240;2023-12-20T06:23:06;8.10;99.90
22838;DHT22;11585;51.450;-0.240;2023-12-20T06:25:32;8.10;99.90
22838;DHT22;11585;51.450;-0.240;2023-12-20T06:27:58;8.10;99.90
22838;DHT22;11585;51.450;-0.240;2023-12-20T06:30:24;8.10;99.90
22838;DHT22;11585;51.450;-0.240;2023-12-20T06:32:51;8.10;99.90
22838;DHT22;11585;51.450;-0.240;2023-12-20T06:35:16;8.30;99.90
22838;DHT22;11585;51.450;-0.240;2023-12-20T06:37:42;8.10;99.90
22838;DHT22;11585;51.450;-0.240;2023-12-20T06:40:12;8.00;99.90
22838;DHT22;11585;51.450;-0.240;2023-12-20T06:42:38;8.00;99.90
22838;DHT22;11585;51.450;-0.240;2023-12-20T06:45:04;8.00;99.90
22838;DHT22;11585;51.450;-0.240;2023-12-20T06:47:30;8.10;99.90
22838;DHT22;11585;51.450;-0.240;2023-12-20T06:49:57;8.10;99.90
22838;DHT22;11585;51.450;-0.240;2023-12-20T06:52:22;8.10;99.90
22838;DHT22;11585;51.450;-0.240;2023-12-20T06:54:48;8.00;99.90
22838;DHT22;11585;51.450;-0.240;2023-12-20T06:57:14;8.00;99.90
22838;DHT22;11585;51.450;-0.240;2023-12-20T06:59:41;8.10;99.90
22838;DHT22;11585;51.450;-0.240;2023-12-20T07:02:06;8.10;99.90
22838;DHT22;11585;51.450;-0.240;2023-12-20T07:04:32;8.00;99.90
22838;DHT22;11585;51.450;-0.240;2023-12-20T07:06:57;8.00;99.90
22838;DHT22;11585;51.450;-0.240;2023-12-20T07:12:47;8.00;99.90
22838;DHT22;11585;51.450;-0.240;2023-12-20T07:15:14;8.10;99.90
22838;DHT22;11585;51.450;-0.240;2023-12-20T07:17:40;8.10;99.90
22838;DHT22;11585;51.450;-0.240;2023-12-20T07:20:24;8.20;99.90
22838;DHT22;11585;51.450;-0.240;2023-12-20T07:22:50;8.10;99.90
22838;DHT22;11585;51.450;-0.240;2023-12-20T07:25:16;8.10;99.90
22838;DHT22;11585;51.450;-0.240;2023-12-20T07:27:41;8.00;99.90
22838;DHT22;11585;51.450;-0.240;2023-12-20T07:30:09;8.00;99.90
22838;DHT22;11585;51.450;-0.240;2023-12-20T07:32:35;8.10;99.90
22838;DHT22;11585;51.450;-0.240;2023-12-20T07:35:01;8.00;99.90
22838;DHT22;11585;51.450;-0.240;2023-12-20T07:37:26;8.10;99.90
22838;DHT22;11585;51.450;-0.240;2023-12-20T07:39:52;8.10;99.90
22838;DHT22;11585;51.450;-0.240;2023-12-20T07:42:18;8.10;99.90
22838;DHT22;11585;51.450;-0.240;2023-12-20T07:44:43;8.10;99.90
22838;DHT22;11585;51.450;-0.240;2023-12-20T07:47:09;8.00;99.90
22838;DHT22;11585;51.450;-0.240;2023-12-20T07:49:39;8.00;99.90
22838;DHT22;11585;51.450;-0.240;2023-12-20T07:52:05;8.10;99.90
22838;DHT22;11585;51.450;-0.240;2023-12-20T07:54:31;8.10;99.90
22838;DHT22;11585;51.450;-0.240;2023-12-20T07:56:57;8.00;99.90
22838;DHT22;11585;51.450;-0.240;2023-12-20T07:59:25;8.10;99.90
22838;DHT22;11585;51.450;-0.240;2023-12-20T08:01:50;8.10;99.90
22838;DHT22;11585;51.450;-0.240;2023-12-20T08:04:16;8.10;99.90
22838;DHT22;11585;51.450;-0.240;2023-12-20T08:06:42;8.10;99.90
22838;DHT22;11585;51.450;-0.240;2023-12-20T08:09:27;8.10;99.90
22838;DHT22;11585;51.450;-0.240;2023-12-20T08:11:53;8.10;99.90
22838;DHT22;11585;51.450;-0.240;2023-12-20T08:14:19;8.10;99.90
22838;DHT22;11585;51.450;-0.240;2023-12-20T08:16:44;8.10;99.90
22838;DHT22;11585;51.450;-0.240;2023-12-20T08:19:11;8.10;99.90
22838;DHT22;11585;51.450;-0.240;2023-12-20T08:21:37;8.10;99.90
22838;DHT22;11585;51.450;-0.240;2023-12-20T08:24:03;8.10;99.90
22838;DHT22;11585;51.450;-0.240;2023-12-20T08:26:29;8.10;99.90
22838;DHT22;11585;51.450;-0.240;2023-12-20T08:28:55;8.10;99.90
22838;DHT22;11585;51.450;-0.240;2023-12-20T08:31:20;8.10;99.90
22838;DHT22;11585;51.450;-0.240;2023-12-20T08:33:47;8.10;99.90
22838;DHT22;11585;51.450;-0.240;2023-12-20T08:36:13;8.10;99.90
22838;DHT22;11585;51.450;-0.240;2023-12-20T08:38:39;8.10;99.90
22838;DHT22;11585;51.450;-0.240;2023-12-20T08:43:52;8.10;99.90
22838;DHT22;11585;51.450;-0.240;2023-12-20T08:46:18;8.10;99.90
22838;DHT22;11585;51.450;-0.240;2023-12-20T08:48:44;8.10;99.90
22838;DHT22;11585;51.450;-0.240;2023-12-20T08:51:10;8.20;99.90
22838;DHT22;11585;51.450;-0.240;2023-12-20T08:53:36;8.20;99.90
22838;DHT22;11585;51.450;-0.240;2023-12-20T08:56:01;8.20;99.90
22838;DHT22;11585;51.450;-0.240;2023-12-20T08:58:28;8.20;99.90
22838;DHT22;11585;51.450;-0.240;2023-12-20T09:00:56;8.20;99.90
22838;DHT22;11585;51.450;-0.240;2023-12-20T09:03:22;8.20;99.90
22838;DHT22;11585;51.450;-0.240;2023-12-20T09:05:48;8.20;99.90
22838;DHT22;11585;51.450;-0.240;2023-12-20T09:08:14;8.20;99.90
22838;DHT22;11585;51.450;-0.240;2023-12-20T09:11:00;8.20;99.90
22838;DHT22;11585;51.450;-0.240;2023-12-20T09:13:26;8.20;99.90
22838;DHT22;11585;51.450;-0.240;2023-12-20T09:15:55;8.20;99.90
22838;DHT22;11585;51.450;-0.240;2023-12-20T09:18:21;8.30;99.90
22838;DHT22;11585;51.450;-0.240;2023-12-20T09:20:48;8.30;99.90
22838;DHT22;11585;51.450;-0.240;2023-12-20T09:23:14;8.30;99.90
22838;DHT22;11585;51.450;-0.240;2023-12-20T09:25:40;8.30;99.90
22838;DHT22;11585;51.450;-0.240;2023-12-20T09:28:06;8.30;99.90
22838;DHT22;11585;51.450;-0.240;2023-12-20T09:33:36;8.40;99.90
22838;DHT22;11585;51.450;-0.240;2023-12-20T09:36:02;8.30;99.90
22838;DHT22;11585;51.450;-0.240;2023-12-20T09:38:27;8.40;99.90
22838;DHT22;11585;51.450;-0.240;2023-12-20T09:43:42;8.40;99.90
22838;DHT22;11585;51.450;-0.240;2023-12-20T09:46:10;8.40;99.90
22838;DHT22;11585;51.450;-0.240;2023-12-20T09:48:37;8.50;99.90
22838;DHT22;11585;51.450;-0.240;2023-12-20T09:54:10;8.50;99.90
22838;DHT22;11585;51.450;-0.240;2023-12-20T09:56:37;8.50;99.90
22838;DHT22;11585;51.450;-0.240;2023-12-20T09:59:03;8.60;99.90
22838;DHT22;11585;51.450;-0.240;2023-12-20T10:01:30;8.60;99.90
22838;DHT22;11585;51.450;-0.240;2023-12-20T10:03:57;8.60;99.90
22838;DHT22;11585;51.450;-0.240;2023-12-20T10:06:24;8.60;99.90
22838;DHT22;11585;51.450;-0.240;2023-12-20T10:08:49;8.60;99.90
22838;DHT22;11585;51.450;-0.240;2023-12-20T10:11:15;8.70;99.90
22838;DHT22;11585;51.450;-0.240;2023-12-20T10:13:41;8.70;99.90
22838;DHT22;11585;51.450;-0.240;2023-12-20T10:16:07;8.70;99.90
22838;DHT22;11585;51.450;-0.240;2023-12-20T10:18:33;8.70;99.90
22838;DHT22;11585;51.450;-0.240;2023-12-20T10:24:30;8.80;99.90
22838;DHT22;11585;51.450;-0.240;2023-12-20T10:27:06;8.80;99.90
22838;DHT22;11585;51.450;-0.240;2023-12-20T10:29:37;8.90;99.90
22838;DHT22;11585;51.450;-0.240;2023-12-20T10:32:22;8.90;99.90
22838;DHT22;11585;51.450;-0.240;2023-12-20T10:34:52;8.90;99.90
22838;DHT22;11585;51.450;-0.240;2023-12-20T10:37:18;8.90;99.90
22838;DHT22;11585;51.450;-0.240;2023-12-20T10:39:49;8.90;99.90
22838;DHT22;11585;51.450;-0.240;2023-12-20T10:42:16;9.00;99.90
22838;DHT22;11585;51.450;-0.240;2023-12-20T10:44:42;9.00;99.90
22838;DHT22;11585;51.450;-0.240;2023-12-20T10:47:09;9.00;99.90
22838;DHT22;11585;51.450;-0.240;2023-12-20T10:52:59;8.90;99.90
22838;DHT22;11585;51.450;-0.240;2023-12-20T10:55:25;9.10;99.90
22838;DHT22;11585;51.450;-0.240;2023-12-20T10:57:52;9.10;99.90
22838;DHT22;11585;51.450;-0.240;2023-12-20T11:00:18;9.10;99.90
22838;DHT22;11585;51.450;-0.240;2023-12-20T11:02:44;9.20;99.90
22838;DHT22;11585;51.450;-0.240;2023-12-20T11:07:52;9.20;99.90
22838;DHT22;11585;51.450;-0.240;2023-12-20T11:13:26;9.20;99.90
22838;DHT22;11585;51.450;-0.240;2023-12-20T11:15:52;9.30;99.90
22838;DHT22;11585;51.450;-0.240;2023-12-20T11:18:18;9.30;99.90
22838;DHT22;11585;51.450;-0.240;2023-12-20T11:20:45;9.30;99.90
22838;DHT22;11585;51.450;-0.240;2023-12-20T11:23:11;9.30;99.90
22838;DHT22;11585;51.450;-0.240;2023-12-20T11:25:56;9.20;99.90
22838;DHT22;11585;51.450;-0.240;2023-12-20T11:28:24;9.40;99.90
22838;DHT22;11585;51.450;-0.240;2023-12-20T11:33:40;9.40;99.90
22838;DHT22;11585;51.450;-0.240;2023-12-20T11:36:15;9.40;99.90
22838;DHT22;11585;51.450;-0.240;2023-12-20T11:38:59;9.40;99.90
22838;DHT22;11585;51.450;-0.240;2023-12-20T11:41:25;9.40;99.90
22838;DHT22;11585;51.450;-0.240;2023-12-20T11:43:55;9.40;99.90
22838;DHT22;11585;51.450;-0.240;2023-12-20T11:46:22;9.40;99.90
22838;DHT22;11585;51.450;-0.240;2023-12-20T11:48:48;9.50;99.90
22838;DHT22;11585;51.450;-0.240;2023-12-20T11:51:14;9.50;99.90
22838;DHT22;11585;51.450;-0.240;2023-12-20T11:53:40;9.50;99.90
22838;DHT22;11585;51.450;-0.240;2023-12-20T11:56:08;9.50;99.90
22838;DHT22;11585;51.450;-0.240;2023-12-20T11:58:34;9.50;99.90
22838;DHT22;11585;51.450;-0.240;2023-12-20T12:04:22;9.50;99.90
22838;DHT22;11585;51.450;-0.240;2023-12-20T12:06:47;9.50;99.90
22838;DHT22;11585;51.450;-0.240;2023-12-20T12:09:14;9.60;99.90
22838;DHT22;11585;51.450;-0.240;2023-12-20T12:11:40;9.60;99.90
22838;DHT22;11585;51.450;-0.240;2023-12-20T12:14:07;9.60;99.90
22838;DHT22;11585;51.450;-0.240;2023-12-20T12:16:33;9.60;99.90
22838;DHT22;11585;51.450;-0.240;2023-12-20T12:19:21;9.60;99.90
22838;DHT22;11585;51.450;-0.240;2023-12-20T12:21:47;9.60;99.90
22838;DHT22;11585;51.450;-0.240;2023-12-20T12:24:13;9.60;99.90
22838;DHT22;11585;51.450;-0.240;2023-12-20T12:26:39;9.70;99.90
22838;DHT22;11585;51.450;-0.240;2023-12-20T12:29:24;9.70;99.90
22838;DHT22;11585;51.450;-0.240;2023-12-20T12:31:50;9.70;99.90
22838;DHT22;11585;51.450;-0.240;2023-12-20T12:34:17;9.70;99.90
22838;DHT22;11585;51.450;-0.240;2023-12-20T12:36:43;9.70;99.90
22838;DHT22;11585;51.450;-0.240;2023-12-20T12:39:13;9.60;99.90
22838;DHT22;11585;51.450;-0.240;2023-12-20T12:41:47;9.80;99.90
22838;DHT22;11585;51.450;-0.240;2023-12-20T12:44:13;9.80;99.90
22838;DHT22;11585;51.450;-0.240;2023-12-20T12:46:39;9.80;99.90
22838;DHT22;11585;51.450;-0.240;2023-12-20T12:49:23;9.90;99.90
22838;DHT22;11585;51.450;-0.240;2023-12-20T12:51:49;9.90;99.90
22838;DHT22;11585;51.450;-0.240;2023-12-20T12:54:15;9.90;99.90
22838;DHT22;11585;51.450;-0.240;2023-12-20T12:56:44;9.90;99.90
22838;DHT22;11585;51.450;-0.240;2023-12-20T12:59:34;9.90;99.90
22838;DHT22;11585;51.450;-0.240;2023-12-20T13:02:00;9.90;99.90
22838;DHT22;11585;51.450;-0.240;2023-12-20T13:04:25;10.00;99.90
22838;DHT22;11585;51.450;-0.240;2023-12-20T13:06:51;10.00;99.90
22838;DHT22;11585;51.450;-0.240;2023-12-20T13:09:37;10.00;99.90
22838;DHT22;11585;51.450;-0.240;2023-12-20T13:12:03;10.10;99.90
22838;DHT22;11585;51.450;-0.240;2023-12-20T13:14:31;10.10;99.90
22838;DHT22;11585;51.450;-0.240;2023-12-20T13:16:58;10.10;99.90
22838;DHT22;11585;51.450;-0.240;2023-12-20T13:19:24;10.10;99.90
22838;DHT22;11585;51.450;-0.240;2023-12-20T13:21:50;10.10;99.90
22838;DHT22;11585;51.450;-0.240;2023-12-20T13:24:15;10.10;99.90
22838;DHT22;11585;51.450;-0.240;2023-12-20T13:26:41;10.10;99.90
22838;DHT22;11585;51.450;-0.240;2023-12-20T13:29:07;10.20;99.90
22838;DHT22;11585;51.450;-0.240;2023-12-20T13:31:33;10.20;99.90
22838;DHT22;11585;51.450;-0.240;2023-12-20T13:33:59;10.20;99.90
22838;DHT22;11585;51.450;-0.240;2023-12-20T13:36:26;10.20;99.90
22838;DHT22;11585;51.450;-0.240;2023-12-20T13:38:51;10.20;99.90
22838;DHT22;11585;51.450;-0.240;2023-12-20T13:41:18;10.20;99.90
22838;DHT22;11585;51.450;-0.240;2023-12-20T13:43:44;10.20;99.90
22838;DHT22;11585;51.450;-0.240;2023-12-20T13:46:11;10.30;99.90
22838;DHT22;11585;51.450;-0.240;2023-12-20T13:48:36;10.30;99.90
22838;DHT22;11585;51.450;-0.240;2023-12-20T13:51:03;10.30;99.90
22838;DHT22;11585;51.450;-0.240;2023-12-20T13:53:29;10.30;99.90
22838;DHT22;11585;51.450;-0.240;2023-12-20T13:55:55;10.30;99.90
22838;DHT22;11585;51.450;-0.240;2023-12-20T13:58:21;10.30;99.90
22838;DHT22;11585;51.450;-0.240;2023-12-20T14:04:08;10.40;99.90
22838;DHT22;11585;51.450;-0.240;2023-12-20T14:06:34;10.30;99.90
22838;DHT22;11585;51.450;-0.240;2023-12-20T14:09:01;10.30;99.90
22838;DHT22;11585;51.450;-0.240;2023-12-20T14:11:27;10.40;99.90
22838;DHT22;11585;51.450;-0.240;2023-12-20T14:13:52;10.40;99.90
22838;DHT22;11585;51.450;-0.240;2023-12-20T14:16:23;10.40;99.90
22838;DHT22;11585;51.450;-0.240;2023-12-20T14:18:49;10.40;99.90
22838;DHT22;11585;51.450;-0.240;2023-12-20T14:21:14;10.40;99.90
22838;DHT22;11585;51.450;-0.240;2023-12-20T14:23:40;10.40;99.90
22838;DHT22;11585;51.450;-0.240;2023-12-20T14:26:06;10.40;99.90
22838;DHT22;11585;51.450;-0.240;2023-12-20T14:28:31;10.50;99.90
22838;DHT22;11585;51.450;-0.240;2023-12-20T14:34:02;10.50;99.90
22838;DHT22;11585;51.450;-0.240;2023-12-20T14:36:29;10.50;99.90
22838;DHT22;11585;51.450;-0.240;2023-12-20T14:38:57;10.40;99.90
22838;DHT22;11585;51.450;-0.240;2023-12-20T14:43:58;10.50;99.90
22838;DHT22;11585;51.450;-0.240;2023-12-20T14:46:25;10.50;99.90
22838;DHT22;11585;51.450;-0.240;2023-12-20T14:48:51;10.60;99.90
22838;DHT22;11585;51.450;-0.240;2023-12-20T14:51:17;10.50;99.90
22838;DHT22;11585;51.450;-0.240;2023-12-20T14:53:48;10.60;99.90
22838;DHT22;11585;51.450;-0.240;2023-12-20T14:56:13;10.60;99.90
22838;DHT22;11585;51.450;-0.240;2023-12-20T14:58:40;10.60;99.90
22838;DHT22;11585;51.450;-0.240;2023-12-20T15:01:06;10.60;99.90
22838;DHT22;11585;51.450;-0.240;2023-12-20T15:03:37;10.60;99.90
22838;DHT22;11585;51.450;-0.240;2023-12-20T15:06:05;10.60;99.90
22838;DHT22;11585;51.450;-0.240;2023-12-20T15:08:31;10.60;99.90
22838;DHT22;11585;51.450;-0.240;2023-12-20T15:10:57;10.60;99.90
22838;DHT22;11585;51.450;-0.240;2023-12-20T15:16:29;10.60;99.90
22838;DHT22;11585;51.450;-0.240;2023-12-20T15:18:54;10.60;99.90
22838;DHT22;11585;51.450;-0.240;2023-12-20T15:21:20;10.70;99.90
22838;DHT22;11585;51.450;-0.240;2023-12-20T15:27:04;10.60;99.90
22838;DHT22;11585;51.450;-0.240;2023-12-20T15:29:30;10.70;99.90
22838;DHT22;11585;51.450;-0.240;2023-12-20T15:31:56;10.60;99.90
22838;DHT22;11585;51.450;-0.240;2023-12-20T15:34:23;10.60;99.90
22838;DHT22;11585;51.450;-0.240;2023-12-20T15:36:49;10.60;99.90
22838;DHT22;11585;51.450;-0.240;2023-12-20T15:39:14;10.70;99.90
22838;DHT22;11585;51.450;-0.240;2023-12-20T15:41:40;10.70;99.90
22838;DHT22;11585;51.450;-0.240;2023-12-20T15:44:06;10.80;99.90
22838;DHT22;11585;51.450;-0.240;2023-12-20T15:46:32;10.70;99.90
22838;DHT22;11585;51.450;-0.240;2023-12-20T15:48:57;10.70;99.90
22838;DHT22;11585;51.450;-0.240;2023-12-20T15:51:23;10.70;99.90
22838;DHT22;11585;51.450;-0.240;2023-12-20T15:57:12;10.70;99.90
22838;DHT22;11585;51.450;-0.240;2023-12-20T15:59:38;10.70;99.90
22838;DHT22;11585;51.450;-0.240;2023-12-20T16:02:03;10.70;99.90
22838;DHT22;11585;51.450;-0.240;2023-12-20T16:04:29;10.70;99.90
22838;DHT22;11585;51.450;-0.240;2023-12-20T16:06:54;10.70;99.90
22838;DHT22;11585;51.450;-0.240;2023-12-20T16:09:20;10.70;99.90
22838;DHT22;11585;51.450;-0.240;2023-12-20T16:11:46;10.70;99.90
22838;DHT22;11585;51.450;-0.240;2023-12-20T16:14:13;10.70;99.90
22838;DHT22;11585;51.450;-0.240;2023-12-20T16:16:43;10.80;99.90
22838;DHT22;11585;51.450;-0.240;2023-12-20T16:19:09;10.80;99.90
22838;DHT22;11585;51.450;-0.240;2023-12-20T16:21:35;10.70;99.90
22838;DHT22;11585;51.450;-0.240;2023-12-20T16:26:50;10.70;99.90
22838;DHT22;11585;51.450;-0.240;2023-12-20T16:29:15;10.80;99.90
22838;DHT22;11585;51.450;-0.240;2023-12-20T16:31:41;10.70;99.90
22838;DHT22;11585;51.450;-0.240;2023-12-20T16:37:29;10.80;99.90
22838;DHT22;11585;51.450;-0.240;2023-12-20T16:39:54;10.80;99.90
22838;DHT22;11585;51.450;-0.240;2023-12-20T16:42:22;10.80;99.90
22838;DHT22;11585;51.450;-0.240;2023-12-20T16:44:48;10.80;99.90
22838;DHT22;11585;51.450;-0.240;2023-12-20T16:47:13;10.80;99.90
22838;DHT22;11585;51.450;-0.240;2023-12-20T16:49:39;10.80;99.90
22838;DHT22;11585;51.450;-0.240;2023-12-20T16:52:05;10.80;99.90
22838;DHT22;11585;51.450;-0.240;2023-12-20T16:54:31;10.80;99.90